sensor_id;sensor_type;location;lat;lon;timestamp;pressure;altitude;pressure_sealevel;temperature
82411;BMP180;74662;60.040;30.218;2024-01-30T00:00:37;101291.00;;;9.80
82411;BMP180;74662;60.040;30.218;2024-01-30T00:01:38;101307.00;;;9.80
82411;BMP180;74662;60.040;30.218;2024-01-30T00:02:38;101296.00;;;9.80
82411;BMP180;74662;60.040;30.218;2024-01-30T00:03:39;101286.00;;;9.80
82411;BMP180;74662;60.040;30.218;2024-01-30T00:04:39;101285.00;;;9.70
82411;BMP180;74662;60.040;30.218;2024-01-30T00:05:40;101300.00;;;9.70
82411;BMP180;74662;60.040;30.218;2024-01-30T00:06:40;101299.00;;;9.80
82411;BMP180;74662;60.040;30.218;2024-01-30T00:07:41;101274.00;;;9.70
82411;BMP180;74662;60.040;30.218;2024-01-30T00:08:41;101293.00;;;9.70
82411;BMP180;74662;60.040;30.218;2024-01-30T00:09:42;101283.00;;;9.70
82411;BMP180;74662;60.040;30.218;2024-01-30T00:10:42;101302.00;;;9.70
82411;BMP180;74662;60.040;30.218;2024-01-30T00:11:43;101301.00;;;9.70
82411;BMP180;74662;60.040;30.218;2024-01-30T00:12:43;101232.00;;;9.70
82411;BMP180;74662;60.040;30.218;2024-01-30T00:13:44;101308.00;;;9.70
82411;BMP180;74662;60.040;30.218;2024-01-30T00:14:44;101317.00;;;9.70
82411;BMP180;74662;60.040;30.218;2024-01-30T00:15:45;101288.00;;;9.70
82411;BMP180;74662;60.040;30.218;2024-01-30T00:16:45;101255.00;;;9.70
82411;BMP180;74662;60.040;30.218;2024-01-30T00:17:46;101288.00;;;9.70
82411;BMP180;74662;60.040;30.218;2024-01-30T00:18:46;101290.00;;;9.70
82411;BMP180;74662;60.040;30.218;2024-01-30T00:19:47;101287.00;;;9.70
82411;BMP180;74662;60.040;30.218;2024-01-30T00:20:47;101303.00;;;9.70
82411;BMP180;74662;60.040;30.218;2024-01-30T00:21:48;101282.00;;;9.70
82411;BMP180;74662;60.040;30.218;2024-01-30T00:22:48;101259.00;;;9.70
82411;BMP180;74662;60.040;30.218;2024-01-30T00:23:49;101302.00;;;9.70
82411;BMP180;74662;60.040;30.218;2024-01-30T00:24:50;101293.00;;;9.50
82411;BMP180;74662;60.040;30.218;2024-01-30T00:25:50;101291.00;;;9.70
82411;BMP180;74662;60.040;30.218;2024-01-30T00:26:51;101206.00;;;9.70
82411;BMP180;74662;60.040;30.218;2024-01-30T00:27:52;101297.00;;;9.60
82411;BMP180;74662;60.040;30.218;2024-01-30T00:28:53;101290.00;;;9.60
82411;BMP180;74662;60.040;30.218;2024-01-30T00:29:53;101291.00;;;9.70
82411;BMP180;74662;60.040;30.218;2024-01-30T00:30:54;101243.00;;;9.60
82411;BMP180;74662;60.040;30.218;2024-01-30T00:31:54;101312.00;;;9.60
82411;BMP180;74662;60.040;30.218;2024-01-30T00:32:55;101312.00;;;9.60
82411;BMP180;74662;60.040;30.218;2024-01-30T00:33:55;101304.00;;;9.60
82411;BMP180;74662;60.040;30.218;2024-01-30T00:34:56;101289.00;;;9.60
82411;BMP180;74662;60.040;30.218;2024-01-30T00:35:56;101314.00;;;9.60
82411;BMP180;74662;60.040;30.218;2024-01-30T00:36:57;101263.00;;;9.60
82411;BMP180;74662;60.040;30.218;2024-01-30T00:37:57;101318.00;;;9.60
82411;BMP180;74662;60.040;30.218;2024-01-30T00:38:58;101320.00;;;9.60
82411;BMP180;74662;60.040;30.218;2024-01-30T00:39:58;101319.00;;;9.60
82411;BMP180;74662;60.040;30.218;2024-01-30T00:40:59;101242.00;;;9.60
82411;BMP180;74662;60.040;30.218;2024-01-30T00:41:59;101320.00;;;9.60
82411;BMP180;74662;60.040;30.218;2024-01-30T00:43:00;101305.00;;;9.60
82411;BMP180;74662;60.040;30.218;2024-01-30T00:44:00;101325.00;;;9.60
82411;BMP180;74662;60.040;30.218;2024-01-30T00:45:01;101268.00;;;9.60
82411;BMP180;74662;60.040;30.218;2024-01-30T00:46:02;101319.00;;;9.60
82411;BMP180;74662;60.040;30.218;2024-01-30T00:47:03;101331.00;;;9.60
82411;BMP180;74662;60.040;30.218;2024-01-30T00:48:04;101315.00;;;9.60
82411;BMP180;74662;60.040;30.218;2024-01-30T00:49:05;101237.00;;;9.60
82411;BMP180;74662;60.040;30.218;2024-01-30T00:50:05;101316.00;;;9.60
82411;BMP180;74662;60.040;30.218;2024-01-30T00:51:06;101269.00;;;9.50
82411;BMP180;74662;60.040;30.218;2024-01-30T00:52:07;101346.00;;;9.60
82411;BMP180;74662;60.040;30.218;2024-01-30T00:53:07;101321.00;;;9.60
82411;BMP180;74662;60.040;30.218;2024-01-30T00:54:08;101330.00;;;9.50
82411;BMP180;74662;60.040;30.218;2024-01-30T00:55:08;101275.00;;;9.50
82411;BMP180;74662;60.040;30.218;2024-01-30T00:56:09;101217.00;;;9.60
82411;BMP180;74662;60.040;30.218;2024-01-30T00:57:09;101334.00;;;9.50
82411;BMP180;74662;60.040;30.218;2024-01-30T00:58:10;101298.00;;;9.50
82411;BMP180;74662;60.040;30.218;2024-01-30T00:59:11;101316.00;;;9.50
82411;BMP180;74662;60.040;30.218;2024-01-30T01:00:12;101328.00;;;9.50
82411;BMP180;74662;60.040;30.218;2024-01-30T01:01:12;101324.00;;;9.50
82411;BMP180;74662;60.040;30.218;2024-01-30T01:02:13;101326.00;;;9.50
82411;BMP180;74662;60.040;30.218;2024-01-30T01:03:15;101322.00;;;9.50
82411;BMP180;74662;60.040;30.218;2024-01-30T01:04:16;101335.00;;;9.50
82411;BMP180;74662;60.040;30.218;2024-01-30T01:05:17;101345.00;;;9.50
82411;BMP180;74662;60.040;30.218;2024-01-30T01:06:18;101337.00;;;9.50
82411;BMP180;74662;60.040;30.218;2024-01-30T01:07:19;101334.00;;;9.50
82411;BMP180;74662;60.040;30.218;2024-01-30T01:08:20;101324.00;;;9.50
82411;BMP180;74662;60.040;30.218;2024-01-30T01:09:20;101303.00;;;9.50
82411;BMP180;74662;60.040;30.218;2024-01-30T01:10:21;101284.00;;;9.50
82411;BMP180;74662;60.040;30.218;2024-01-30T01:11:22;101302.00;;;9.50
82411;BMP180;74662;60.040;30.218;2024-01-30T01:12:23;101339.00;;;9.50
82411;BMP180;74662;60.040;30.218;2024-01-30T01:13:24;101335.00;;;9.50
82411;BMP180;74662;60.040;30.218;2024-01-30T01:14:24;101282.00;;;9.50
82411;BMP180;74662;60.040;30.218;2024-01-30T01:15:25;101347.00;;;9.50
82411;BMP180;74662;60.040;30.218;2024-01-30T01:16:26;101331.00;;;9.50
82411;BMP180;74662;60.040;30.218;2024-01-30T01:17:26;101347.00;;;9.50
82411;BMP180;74662;60.040;30.218;2024-01-30T01:18:27;101294.00;;;9.50
82411;BMP180;74662;60.040;30.218;2024-01-30T01:19:27;101355.00;;;9.50
82411;BMP180;74662;60.040;30.218;2024-01-30T01:20:28;101352.00;;;9.50
82411;BMP180;74662;60.040;30.218;2024-01-30T01:21:29;101360.00;;;9.50
82411;BMP180;74662;60.040;30.218;2024-01-30T01:22:29;101351.00;;;9.50
82411;BMP180;74662;60.040;30.218;2024-01-30T01:23:30;101355.00;;;9.50
82411;BMP180;74662;60.040;30.218;2024-01-30T01:24:33;101362.00;;;9.50
82411;BMP180;74662;60.040;30.218;2024-01-30T01:25:34;101366.00;;;9.50
82411;BMP180;74662;60.040;30.218;2024-01-30T01:26:35;101311.00;;;9.50
82411;BMP180;74662;60.040;30.218;2024-01-30T01:27:36;101318.00;;;9.50
82411;BMP180;74662;60.040;30.218;2024-01-30T01:28:41;101334.00;;;9.50
82411;BMP180;74662;60.040;30.218;2024-01-30T01:29:41;101291.00;;;9.50
82411;BMP180;74662;60.040;30.218;2024-01-30T01:30:42;101309.00;;;9.40
82411;BMP180;74662;60.040;30.218;2024-01-30T01:31:42;101362.00;;;9.50
82411;BMP180;74662;60.040;30.218;2024-01-30T01:32:43;101272.00;;;9.40
82411;BMP180;74662;60.040;30.218;2024-01-30T01:33:50;101370.00;;;9.50
82411;BMP180;74662;60.040;30.218;2024-01-30T01:34:51;101363.00;;;9.50
82411;BMP180;74662;60.040;30.218;2024-01-30T01:35:51;101376.00;;;9.50
82411;BMP180;74662;60.040;30.218;2024-01-30T01:36:52;101359.00;;;9.40
82411;BMP180;74662;60.040;30.218;2024-01-30T01:37:55;101373.00;;;9.40
82411;BMP180;74662;60.040;30.218;2024-01-30T01:38:56;101326.00;;;9.40
82411;BMP180;74662;60.040;30.218;2024-01-30T01:39:56;101376.00;;;9.40
82411;BMP180;74662;60.040;30.218;2024-01-30T01:40:57;101386.00;;;9.40
82411;BMP180;74662;60.040;30.218;2024-01-30T01:41:57;101384.00;;;9.40
82411;BMP180;74662;60.040;30.218;2024-01-30T01:42:58;101374.00;;;9.40
82411;BMP180;74662;60.040;30.218;2024-01-30T01:43:59;101378.00;;;9.40
82411;BMP180;74662;60.040;30.218;2024-01-30T01:45:00;101359.00;;;9.40
82411;BMP180;74662;60.040;30.218;2024-01-30T01:46:00;101384.00;;;9.40
82411;BMP180;74662;60.040;30.218;2024-01-30T01:47:01;101381.00;;;9.40
82411;BMP180;74662;60.040;30.218;2024-01-30T01:48:02;101333.00;;;9.40
82411;BMP180;74662;60.040;30.218;2024-01-30T01:49:04;101375.00;;;9.40
82411;BMP180;74662;60.040;30.218;2024-01-30T01:50:05;101349.00;;;9.40
82411;BMP180;74662;60.040;30.218;2024-01-30T01:51:06;101373.00;;;9.40
82411;BMP180;74662;60.040;30.218;2024-01-30T01:52:07;101370.00;;;9.40
82411;BMP180;74662;60.040;30.218;2024-01-30T01:53:08;101332.00;;;9.40
82411;BMP180;74662;60.040;30.218;2024-01-30T01:54:08;101410.00;;;9.40
82411;BMP180;74662;60.040;30.218;2024-01-30T01:55:10;101409.00;;;9.40
82411;BMP180;74662;60.040;30.218;2024-01-30T01:56:10;101411.00;;;9.40
82411;BMP180;74662;60.040;30.218;2024-01-30T01:57:11;101400.00;;;9.40
82411;BMP180;74662;60.040;30.218;2024-01-30T01:58:13;101391.00;;;9.40
82411;BMP180;74662;60.040;30.218;2024-01-30T01:59:13;101358.00;;;9.40
82411;BMP180;74662;60.040;30.218;2024-01-30T02:00:14;101402.00;;;9.40
82411;BMP180;74662;60.040;30.218;2024-01-30T02:01:16;101395.00;;;9.30
82411;BMP180;74662;60.040;30.218;2024-01-30T02:02:19;101340.00;;;9.40
82411;BMP180;74662;60.040;30.218;2024-01-30T02:03:20;101402.00;;;9.40
82411;BMP180;74662;60.040;30.218;2024-01-30T02:04:21;101415.00;;;9.40
82411;BMP180;74662;60.040;30.218;2024-01-30T02:05:22;101355.00;;;9.40
82411;BMP180;74662;60.040;30.218;2024-01-30T02:06:22;101385.00;;;9.40
82411;BMP180;74662;60.040;30.218;2024-01-30T02:07:24;101414.00;;;9.30
82411;BMP180;74662;60.040;30.218;2024-01-30T02:08:24;101346.00;;;9.30
82411;BMP180;74662;60.040;30.218;2024-01-30T02:09:25;101402.00;;;9.30
82411;BMP180;74662;60.040;30.218;2024-01-30T02:10:25;101419.00;;;9.30
82411;BMP180;74662;60.040;30.218;2024-01-30T02:11:26;101344.00;;;9.30
82411;BMP180;74662;60.040;30.218;2024-01-30T02:12:27;101416.00;;;9.30
82411;BMP180;74662;60.040;30.218;2024-01-30T02:13:28;101416.00;;;9.30
82411;BMP180;74662;60.040;30.218;2024-01-30T02:14:28;101368.00;;;9.30
82411;BMP180;74662;60.040;30.218;2024-01-30T02:15:29;101405.00;;;9.30
82411;BMP180;74662;60.040;30.218;2024-01-30T02:16:30;101422.00;;;9.40
82411;BMP180;74662;60.040;30.218;2024-01-30T02:17:31;101409.00;;;9.30
82411;BMP180;74662;60.040;30.218;2024-01-30T02:18:31;101359.00;;;9.30
82411;BMP180;74662;60.040;30.218;2024-01-30T02:19:32;101338.00;;;9.30
82411;BMP180;74662;60.040;30.218;2024-01-30T02:20:35;101419.00;;;9.30
82411;BMP180;74662;60.040;30.218;2024-01-30T02:21:35;101418.00;;;9.30
82411;BMP180;74662;60.040;30.218;2024-01-30T02:22:36;101387.00;;;9.30
82411;BMP180;74662;60.040;30.218;2024-01-30T02:23:38;101413.00;;;9.30
82411;BMP180;74662;60.040;30.218;2024-01-30T02:24:39;101425.00;;;9.30
82411;BMP180;74662;60.040;30.218;2024-01-30T02:25:40;101434.00;;;9.30
82411;BMP180;74662;60.040;30.218;2024-01-30T02:26:44;101408.00;;;9.40
82411;BMP180;74662;60.040;30.218;2024-01-30T02:27:45;101371.00;;;9.40
82411;BMP180;74662;60.040;30.218;2024-01-30T02:28:46;101384.00;;;9.40
82411;BMP180;74662;60.040;30.218;2024-01-30T02:29:46;101401.00;;;9.30
82411;BMP180;74662;60.040;30.218;2024-01-30T02:30:47;101389.00;;;9.40
82411;BMP180;74662;60.040;30.218;2024-01-30T02:31:47;101374.00;;;9.40
82411;BMP180;74662;60.040;30.218;2024-01-30T02:32:48;101382.00;;;9.40
82411;BMP180;74662;60.040;30.218;2024-01-30T02:33:48;101382.00;;;9.40
82411;BMP180;74662;60.040;30.218;2024-01-30T02:34:49;101383.00;;;9.40
82411;BMP180;74662;60.040;30.218;2024-01-30T02:35:49;101378.00;;;9.40
82411;BMP180;74662;60.040;30.218;2024-01-30T02:36:50;101417.00;;;9.40
82411;BMP180;74662;60.040;30.218;2024-01-30T02:37:51;101417.00;;;9.40
82411;BMP180;74662;60.040;30.218;2024-01-30T02:38:51;101430.00;;;9.40
82411;BMP180;74662;60.040;30.218;2024-01-30T02:39:52;101417.00;;;9.40
82411;BMP180;74662;60.040;30.218;2024-01-30T02:40:52;101423.00;;;9.40
82411;BMP180;74662;60.040;30.218;2024-01-30T02:41:53;101420.00;;;9.40
82411;BMP180;74662;60.040;30.218;2024-01-30T02:42:55;101393.00;;;9.20
82411;BMP180;74662;60.040;30.218;2024-01-30T02:43:56;101433.00;;;9.30
82411;BMP180;74662;60.040;30.218;2024-01-30T02:44:56;101384.00;;;9.40
82411;BMP180;74662;60.040;30.218;2024-01-30T02:45:57;101433.00;;;9.40
82411;BMP180;74662;60.040;30.218;2024-01-30T02:47:00;101431.00;;;9.40
82411;BMP180;74662;60.040;30.218;2024-01-30T02:48:00;101387.00;;;9.40
82411;BMP180;74662;60.040;30.218;2024-01-30T02:49:01;101274.00;;;9.40
82411;BMP180;74662;60.040;30.218;2024-01-30T02:50:02;101414.00;;;9.40
82411;BMP180;74662;60.040;30.218;2024-01-30T02:51:03;101418.00;;;9.40
82411;BMP180;74662;60.040;30.218;2024-01-30T02:52:04;101429.00;;;9.40
82411;BMP180;74662;60.040;30.218;2024-01-30T02:53:04;101427.00;;;9.40
82411;BMP180;74662;60.040;30.218;2024-01-30T02:54:05;101417.00;;;9.30
82411;BMP180;74662;60.040;30.218;2024-01-30T02:55:06;101375.00;;;9.30
82411;BMP180;74662;60.040;30.218;2024-01-30T02:56:06;101420.00;;;9.30
82411;BMP180;74662;60.040;30.218;2024-01-30T02:57:10;101411.00;;;9.30
82411;BMP180;74662;60.040;30.218;2024-01-30T02:58:10;101420.00;;;9.30
82411;BMP180;74662;60.040;30.218;2024-01-30T02:59:11;101440.00;;;9.30
82411;BMP180;74662;60.040;30.218;2024-01-30T03:00:12;101376.00;;;9.30
82411;BMP180;74662;60.040;30.218;2024-01-30T03:01:13;101437.00;;;9.30
82411;BMP180;74662;60.040;30.218;2024-01-30T03:02:13;101386.00;;;9.30
82411;BMP180;74662;60.040;30.218;2024-01-30T03:03:14;101437.00;;;9.30
82411;BMP180;74662;60.040;30.218;2024-01-30T03:04:14;101420.00;;;9.30
82411;BMP180;74662;60.040;30.218;2024-01-30T03:05:15;101450.00;;;9.30
82411;BMP180;74662;60.040;30.218;2024-01-30T03:06:15;101454.00;;;9.30
82411;BMP180;74662;60.040;30.218;2024-01-30T03:07:17;101439.00;;;9.30
82411;BMP180;74662;60.040;30.218;2024-01-30T03:08:18;101439.00;;;9.30
82411;BMP180;74662;60.040;30.218;2024-01-30T03:09:18;101427.00;;;9.30
82411;BMP180;74662;60.040;30.218;2024-01-30T03:10:19;101452.00;;;9.30
82411;BMP180;74662;60.040;30.218;2024-01-30T03:11:19;101388.00;;;9.30
82411;BMP180;74662;60.040;30.218;2024-01-30T03:12:20;101394.00;;;9.30
82411;BMP180;74662;60.040;30.218;2024-01-30T03:13:21;101450.00;;;9.30
82411;BMP180;74662;60.040;30.218;2024-01-30T03:14:23;101451.00;;;9.30
82411;BMP180;74662;60.040;30.218;2024-01-30T03:15:24;101426.00;;;9.30
82411;BMP180;74662;60.040;30.218;2024-01-30T03:16:24;101459.00;;;9.30
82411;BMP180;74662;60.040;30.218;2024-01-30T03:17:25;101448.00;;;9.30
82411;BMP180;74662;60.040;30.218;2024-01-30T03:18:25;101393.00;;;9.30
82411;BMP180;74662;60.040;30.218;2024-01-30T03:19:26;101404.00;;;9.30
82411;BMP180;74662;60.040;30.218;2024-01-30T03:20:26;101439.00;;;9.30
82411;BMP180;74662;60.040;30.218;2024-01-30T03:21:27;101434.00;;;9.30
82411;BMP180;74662;60.040;30.218;2024-01-30T03:22:27;101444.00;;;9.30
82411;BMP180;74662;60.040;30.218;2024-01-30T03:23:28;101478.00;;;9.30
82411;BMP180;74662;60.040;30.218;2024-01-30T03:24:28;101465.00;;;9.30
82411;BMP180;74662;60.040;30.218;2024-01-30T03:25:29;101456.00;;;9.30
82411;BMP180;74662;60.040;30.218;2024-01-30T03:26:29;101472.00;;;9.30
82411;BMP180;74662;60.040;30.218;2024-01-30T03:27:30;101467.00;;;9.30
82411;BMP180;74662;60.040;30.218;2024-01-30T03:28:30;101428.00;;;9.20
82411;BMP180;74662;60.040;30.218;2024-01-30T03:29:31;101434.00;;;9.20
82411;BMP180;74662;60.040;30.218;2024-01-30T03:30:31;101490.00;;;9.20
82411;BMP180;74662;60.040;30.218;2024-01-30T03:31:32;101456.00;;;9.20
82411;BMP180;74662;60.040;30.218;2024-01-30T03:32:32;101418.00;;;9.20
82411;BMP180;74662;60.040;30.218;2024-01-30T03:33:33;101465.00;;;9.20
82411;BMP180;74662;60.040;30.218;2024-01-30T03:34:33;101483.00;;;9.20
82411;BMP180;74662;60.040;30.218;2024-01-30T03:35:34;101421.00;;;9.20
82411;BMP180;74662;60.040;30.218;2024-01-30T03:36:34;101439.00;;;9.20
82411;BMP180;74662;60.040;30.218;2024-01-30T03:37:35;101489.00;;;9.20
82411;BMP180;74662;60.040;30.218;2024-01-30T03:38:36;101451.00;;;9.20
82411;BMP180;74662;60.040;30.218;2024-01-30T03:39:36;101419.00;;;9.20
82411;BMP180;74662;60.040;30.218;2024-01-30T03:40:37;101484.00;;;9.20
82411;BMP180;74662;60.040;30.218;2024-01-30T03:41:37;101489.00;;;9.20
82411;BMP180;74662;60.040;30.218;2024-01-30T03:42:38;101483.00;;;9.20
82411;BMP180;74662;60.040;30.218;2024-01-30T03:43:38;101473.00;;;9.20
82411;BMP180;74662;60.040;30.218;2024-01-30T03:44:39;101398.00;;;9.10
82411;BMP180;74662;60.040;30.218;2024-01-30T03:45:39;101469.00;;;9.10
82411;BMP180;74662;60.040;30.218;2024-01-30T03:46:40;101471.00;;;9.10
82411;BMP180;74662;60.040;30.218;2024-01-30T03:47:43;101459.00;;;9.10
82411;BMP180;74662;60.040;30.218;2024-01-30T03:48:45;101456.00;;;9.10
82411;BMP180;74662;60.040;30.218;2024-01-30T03:49:45;101467.00;;;9.10
82411;BMP180;74662;60.040;30.218;2024-01-30T03:50:46;101402.00;;;9.10
82411;BMP180;74662;60.040;30.218;2024-01-30T03:51:47;101471.00;;;9.10
82411;BMP180;74662;60.040;30.218;2024-01-30T03:52:47;101426.00;;;9.10
82411;BMP180;74662;60.040;30.218;2024-01-30T03:53:48;101474.00;;;9.10
82411;BMP180;74662;60.040;30.218;2024-01-30T03:54:48;101471.00;;;9.10
82411;BMP180;74662;60.040;30.218;2024-01-30T03:55:49;101443.00;;;9.10
82411;BMP180;74662;60.040;30.218;2024-01-30T03:56:50;101464.00;;;9.10
82411;BMP180;74662;60.040;30.218;2024-01-30T03:57:50;101470.00;;;9.10
82411;BMP180;74662;60.040;30.218;2024-01-30T03:58:51;101450.00;;;9.00
82411;BMP180;74662;60.040;30.218;2024-01-30T03:59:51;101464.00;;;9.10
82411;BMP180;74662;60.040;30.218;2024-01-30T04:00:52;101401.00;;;9.00
82411;BMP180;74662;60.040;30.218;2024-01-30T04:01:53;101473.00;;;9.00
82411;BMP180;74662;60.040;30.218;2024-01-30T04:02:53;101474.00;;;9.00
82411;BMP180;74662;60.040;30.218;2024-01-30T04:03:54;101427.00;;;9.00
82411;BMP180;74662;60.040;30.218;2024-01-30T04:04:54;101452.00;;;8.90
82411;BMP180;74662;60.040;30.218;2024-01-30T04:05:55;101443.00;;;9.00
82411;BMP180;74662;60.040;30.218;2024-01-30T04:06:55;101411.00;;;9.00
82411;BMP180;74662;60.040;30.218;2024-01-30T04:07:56;101465.00;;;9.00
82411;BMP180;74662;60.040;30.218;2024-01-30T04:08:56;101480.00;;;9.00
82411;BMP180;74662;60.040;30.218;2024-01-30T04:09:57;101430.00;;;9.00
82411;BMP180;74662;60.040;30.218;2024-01-30T04:10:57;101483.00;;;9.00
82411;BMP180;74662;60.040;30.218;2024-01-30T04:11:58;101476.00;;;9.00
82411;BMP180;74662;60.040;30.218;2024-01-30T04:12:58;101467.00;;;9.00
82411;BMP180;74662;60.040;30.218;2024-01-30T04:14:00;101464.00;;;9.00
82411;BMP180;74662;60.040;30.218;2024-01-30T04:15:00;101475.00;;;8.90
82411;BMP180;74662;60.040;30.218;2024-01-30T04:16:01;101476.00;;;8.90
82411;BMP180;74662;60.040;30.218;2024-01-30T04:17:02;101429.00;;;9.00
82411;BMP180;74662;60.040;30.218;2024-01-30T04:18:03;101431.00;;;8.90
82411;BMP180;74662;60.040;30.218;2024-01-30T04:19:04;101455.00;;;8.90
82411;BMP180;74662;60.040;30.218;2024-01-30T04:20:05;101475.00;;;8.90
82411;BMP180;74662;60.040;30.218;2024-01-30T04:21:06;101479.00;;;8.90
82411;BMP180;74662;60.040;30.218;2024-01-30T04:22:06;101485.00;;;8.90
82411;BMP180;74662;60.040;30.218;2024-01-30T04:23:07;101456.00;;;8.90
82411;BMP180;74662;60.040;30.218;2024-01-30T04:24:07;101481.00;;;8.90
82411;BMP180;74662;60.040;30.218;2024-01-30T04:25:08;101465.00;;;8.90
82411;BMP180;74662;60.040;30.218;2024-01-30T04:26:08;101434.00;;;8.90
82411;BMP180;74662;60.040;30.218;2024-01-30T04:27:09;101472.00;;;8.90
82411;BMP180;74662;60.040;30.218;2024-01-30T04:28:10;101477.00;;;8.90
82411;BMP180;74662;60.040;30.218;2024-01-30T04:29:12;101482.00;;;8.90
82411;BMP180;74662;60.040;30.218;2024-01-30T04:30:13;101467.00;;;8.90
82411;BMP180;74662;60.040;30.218;2024-01-30T04:31:13;101406.00;;;8.90
82411;BMP180;74662;60.040;30.218;2024-01-30T04:32:14;101414.00;;;8.80
82411;BMP180;74662;60.040;30.218;2024-01-30T04:33:14;101417.00;;;8.90
82411;BMP180;74662;60.040;30.218;2024-01-30T04:34:15;101470.00;;;8.80
82411;BMP180;74662;60.040;30.218;2024-01-30T04:35:15;101473.00;;;8.80
82411;BMP180;74662;60.040;30.218;2024-01-30T04:36:16;101471.00;;;8.80
82411;BMP180;74662;60.040;30.218;2024-01-30T04:37:16;101460.00;;;8.80
82411;BMP180;74662;60.040;30.218;2024-01-30T04:38:17;101489.00;;;8.80
82411;BMP180;74662;60.040;30.218;2024-01-30T04:39:18;101438.00;;;8.80
82411;BMP180;74662;60.040;30.218;2024-01-30T04:40:20;101425.00;;;8.80
82411;BMP180;74662;60.040;30.218;2024-01-30T04:41:20;101483.00;;;8.80
82411;BMP180;74662;60.040;30.218;2024-01-30T04:42:21;101481.00;;;8.80
82411;BMP180;74662;60.040;30.218;2024-01-30T04:43:21;101474.00;;;8.80
82411;BMP180;74662;60.040;30.218;2024-01-30T04:44:22;101480.00;;;8.80
82411;BMP180;74662;60.040;30.218;2024-01-30T04:45:22;101485.00;;;8.80
82411;BMP180;74662;60.040;30.218;2024-01-30T04:46:23;101403.00;;;8.80
82411;BMP180;74662;60.040;30.218;2024-01-30T04:47:23;101482.00;;;8.80
82411;BMP180;74662;60.040;30.218;2024-01-30T04:48:24;101477.00;;;8.80
82411;BMP180;74662;60.040;30.218;2024-01-30T04:49:24;101301.00;;;8.80
82411;BMP180;74662;60.040;30.218;2024-01-30T04:50:25;101483.00;;;8.80
82411;BMP180;74662;60.040;30.218;2024-01-30T04:51:26;101482.00;;;8.70
82411;BMP180;74662;60.040;30.218;2024-01-30T04:52:27;101472.00;;;8.70
82411;BMP180;74662;60.040;30.218;2024-01-30T04:53:28;101428.00;;;8.70
82411;BMP180;74662;60.040;30.218;2024-01-30T04:54:28;101491.00;;;8.70
82411;BMP180;74662;60.040;30.218;2024-01-30T04:55:29;101483.00;;;8.70
82411;BMP180;74662;60.040;30.218;2024-01-30T04:56:29;101491.00;;;8.70
82411;BMP180;74662;60.040;30.218;2024-01-30T04:57:31;101479.00;;;8.70
82411;BMP180;74662;60.040;30.218;2024-01-30T04:58:33;101478.00;;;8.70
82411;BMP180;74662;60.040;30.218;2024-01-30T04:59:34;101472.00;;;8.70
82411;BMP180;74662;60.040;30.218;2024-01-30T05:00:34;101485.00;;;8.70
82411;BMP180;74662;60.040;30.218;2024-01-30T05:01:35;101431.00;;;8.70
82411;BMP180;74662;60.040;30.218;2024-01-30T05:02:36;101502.00;;;8.70
82411;BMP180;74662;60.040;30.218;2024-01-30T05:03:36;101437.00;;;8.70
82411;BMP180;74662;60.040;30.218;2024-01-30T05:04:37;101468.00;;;8.70
82411;BMP180;74662;60.040;30.218;2024-01-30T05:05:37;101472.00;;;8.70
82411;BMP180;74662;60.040;30.218;2024-01-30T05:06:37;101494.00;;;8.70
82411;BMP180;74662;60.040;30.218;2024-01-30T05:07:41;101433.00;;;8.70
82411;BMP180;74662;60.040;30.218;2024-01-30T05:08:41;101483.00;;;8.70
82411;BMP180;74662;60.040;30.218;2024-01-30T05:09:42;101473.00;;;8.70
82411;BMP180;74662;60.040;30.218;2024-01-30T05:10:42;101485.00;;;8.70
82411;BMP180;74662;60.040;30.218;2024-01-30T05:11:43;101509.00;;;8.70
82411;BMP180;74662;60.040;30.218;2024-01-30T05:12:43;101441.00;;;8.70
82411;BMP180;74662;60.040;30.218;2024-01-30T05:13:44;101453.00;;;8.70
82411;BMP180;74662;60.040;30.218;2024-01-30T05:14:45;101451.00;;;8.70
82411;BMP180;74662;60.040;30.218;2024-01-30T05:15:45;101507.00;;;8.60
82411;BMP180;74662;60.040;30.218;2024-01-30T05:16:46;101505.00;;;8.70
82411;BMP180;74662;60.040;30.218;2024-01-30T05:17:47;101523.00;;;8.60
82411;BMP180;74662;60.040;30.218;2024-01-30T05:18:47;101522.00;;;8.60
82411;BMP180;74662;60.040;30.218;2024-01-30T05:19:48;101511.00;;;8.60
82411;BMP180;74662;60.040;30.218;2024-01-30T05:20:52;101461.00;;;8.60
82411;BMP180;74662;60.040;30.218;2024-01-30T05:21:52;101538.00;;;8.60
82411;BMP180;74662;60.040;30.218;2024-01-30T05:22:53;101526.00;;;8.60
82411;BMP180;74662;60.040;30.218;2024-01-30T05:23:54;101516.00;;;8.60
82411;BMP180;74662;60.040;30.218;2024-01-30T05:24:54;101548.00;;;8.60
82411;BMP180;74662;60.040;30.218;2024-01-30T05:25:55;101467.00;;;8.60
82411;BMP180;74662;60.040;30.218;2024-01-30T05:26:55;101521.00;;;8.60
82411;BMP180;74662;60.040;30.218;2024-01-30T05:27:56;101437.00;;;8.60
82411;BMP180;74662;60.040;30.218;2024-01-30T05:28:57;101518.00;;;8.60
82411;BMP180;74662;60.040;30.218;2024-01-30T05:29:57;101516.00;;;8.60
82411;BMP180;74662;60.040;30.218;2024-01-30T05:30:58;101526.00;;;8.60
82411;BMP180;74662;60.040;30.218;2024-01-30T05:31:58;101525.00;;;8.60
82411;BMP180;74662;60.040;30.218;2024-01-30T05:32:59;101504.00;;;8.60
82411;BMP180;74662;60.040;30.218;2024-01-30T05:34:00;101501.00;;;8.60
82411;BMP180;74662;60.040;30.218;2024-01-30T05:35:00;101455.00;;;8.60
82411;BMP180;74662;60.040;30.218;2024-01-30T05:36:01;101523.00;;;8.60
82411;BMP180;74662;60.040;30.218;2024-01-30T05:37:01;101527.00;;;8.60
82411;BMP180;74662;60.040;30.218;2024-01-30T05:38:02;101503.00;;;8.60
82411;BMP180;74662;60.040;30.218;2024-01-30T05:39:03;101525.00;;;8.60
82411;BMP180;74662;60.040;30.218;2024-01-30T05:40:03;101520.00;;;8.60
82411;BMP180;74662;60.040;30.218;2024-01-30T05:41:05;101464.00;;;8.60
82411;BMP180;74662;60.040;30.218;2024-01-30T05:42:06;101473.00;;;8.60
82411;BMP180;74662;60.040;30.218;2024-01-30T05:43:07;101474.00;;;8.60
82411;BMP180;74662;60.040;30.218;2024-01-30T05:44:08;101537.00;;;8.60
82411;BMP180;74662;60.040;30.218;2024-01-30T05:45:09;101481.00;;;8.60